Time;durP1;ratioP1;P1;durP2;ratioP2;P2;SDS_P1;SDS_P2;PMS_P1;PMS_P2;Temp;Humidity;BMP_temperature;BMP_pressure;BME280_temperature;BME280_humidity;BME280_pressure;Samples;Min_cycle;Max_cycle;Signal;HPM_P1;HPM_P2
2021/05/23 00:00:10;;;;;;;4.85;3.70;;;15.40;95.30;;;;;;5111485;28;20460;-65
2021/05/23 00:02:36;;;;;;;3.33;3.03;;;15.40;95.10;;;;;;5099020;27;20214;-64
2021/05/23 00:05:05;;;;;;;5.25;3.85;;;15.30;95.00;;;;;;5112143;27;20549;-64
2021/05/23 00:07:37;;;;;;;3.90;3.33;;;15.30;94.90;;;;;;5099459;27;20227;-65
2021/05/23 00:10:05;;;;;;;2.10;2.00;;;15.30;94.90;;;;;;5112441;27;20241;-65
2021/05/23 00:12:32;;;;;;;3.38;2.78;;;15.20;95.00;;;;;;5113882;28;20223;-65
2021/05/23 00:14:58;;;;;;;2.42;1.80;;;15.20;95.20;;;;;;5116494;27;20230;-65
2021/05/23 00:17:25;;;;;;;2.00;1.80;;;15.20;95.30;;;;;;5116816;27;20230;-65
2021/05/23 00:19:51;;;;;;;3.67;2.33;;;15.20;95.40;;;;;;5116579;28;20221;-65
2021/05/23 00:22:18;;;;;;;3.40;2.20;;;15.10;95.30;;;;;;5116412;28;20222;-65
2021/05/23 00:24:45;;;;;;;4.40;3.65;;;15.10;95.40;;;;;;5116824;28;20849;-65
2021/05/23 00:27:11;;;;;;;2.70;2.47;;;15.10;95.30;;;;;;5116331;27;20672;-65
2021/05/23 00:29:38;;;;;;;4.05;3.35;;;15.10;95.40;;;;;;5116509;28;20218;-65
2021/05/23 00:32:06;;;;;;;6.35;3.65;;;15.10;95.50;;;;;;5116197;27;20362;-65
2021/05/23 00:34:32;;;;;;;6.68;4.30;;;15.00;95.50;;;;;;5110373;27;20681;-65
2021/05/23 00:36:59;;;;;;;3.22;2.90;;;15.00;95.50;;;;;;5106260;27;20363;-66
2021/05/23 00:39:25;;;;;;;4.10;3.28;;;15.00;95.60;;;;;;5101950;27;20214;-65
2021/05/23 00:41:52;;;;;;;3.40;3.10;;;15.00;95.60;;;;;;5116513;28;20287;-65
2021/05/23 00:44:19;;;;;;;5.10;2.67;;;15.00;95.70;;;;;;5115755;27;20635;-65
2021/05/23 00:46:46;;;;;;;3.28;3.03;;;14.90;95.70;;;;;;5116192;27;20278;-65
2021/05/23 00:49:12;;;;;;;3.38;3.08;;;14.90;95.70;;;;;;5112386;27;20226;-65
2021/05/23 00:51:39;;;;;;;2.60;2.40;;;14.80;95.70;;;;;;5106056;27;20226;-65
2021/05/23 00:54:06;;;;;;;4.53;2.65;;;14.80;95.80;;;;;;5115835;28;20521;-65
2021/05/23 00:56:34;;;;;;;6.10;3.20;;;14.80;95.80;;;;;;5116370;27;20218;-65
2021/05/23 00:59:01;;;;;;;4.50;3.25;;;14.70;95.90;;;;;;5115446;28;20284;-65
2021/05/23 01:02:04;;;;;;;6.72;3.50;;;14.70;96.00;;;;;;5115091;28;20222;-65
2021/05/23 01:04:31;;;;;;;3.53;2.10;;;14.70;96.00;;;;;;5104145;28;21197;-65
2021/05/23 01:06:58;;;;;;;5.60;4.40;;;14.70;96.10;;;;;;5115698;28;20464;-65
2021/05/23 01:09:25;;;;;;;6.07;4.05;;;14.70;96.10;;;;;;5115108;28;20288;-66
2021/05/23 01:12:24;;;;;;;11.65;8.98;;;14.70;96.10;;;;;;5115077;28;20222;-66
2021/05/23 01:14:57;;;;;;;3.65;3.35;;;14.70;96.00;;;;;;5109011;28;20241;-65
2021/05/23 01:17:38;;;;;;;7.82;2.97;;;14.70;96.20;;;;;;5102840;28;20285;-65
2021/05/23 01:20:28;;;;;;;3.92;3.63;;;14.70;96.20;;;;;;5115294;27;20234;-65
2021/05/23 01:23:15;;;;;;;4.40;3.40;;;14.70;96.20;;;;;;5115315;27;20231;-65
2021/05/23 01:25:45;;;;;;;3.90;2.90;;;14.60;96.30;;;;;;5108456;27;20564;-65
2021/05/23 01:28:13;;;;;;;3.47;3.10;;;14.60;96.30;;;;;;5114877;27;20226;-65
2021/05/23 01:30:46;;;;;;;3.72;3.40;;;14.50;96.30;;;;;;5115484;27;20226;-65
2021/05/23 01:33:15;;;;;;;6.45;4.72;;;14.50;96.40;;;;;;5101616;28;20253;-65
2021/05/23 01:35:46;;;;;;;3.88;3.53;;;14.50;96.40;;;;;;5115192;28;20693;-65
2021/05/23 01:38:15;;;;;;;3.50;3.20;;;14.50;96.40;;;;;;5114417;27;20687;-65
2021/05/23 01:40:43;;;;;;;3.30;3.10;;;14.50;96.40;;;;;;5115397;27;20672;-65
2021/05/23 01:43:10;;;;;;;3.80;3.53;;;14.50;96.40;;;;;;5115053;27;20617;-65
2021/05/23 01:45:38;;;;;;;3.67;3.40;;;14.40;96.40;;;;;;5115553;27;20619;-65
2021/05/23 01:48:06;;;;;;;2.97;2.70;;;14.40;96.50;;;;;;5113098;27;20239;-65
2021/05/23 01:50:34;;;;;;;2.90;2.70;;;14.40;96.50;;;;;;5110067;27;20223;-65
2021/05/23 01:53:02;;;;;;;3.03;2.83;;;14.40;96.60;;;;;;5112060;27;20215;-65
2021/05/23 01:55:29;;;;;;;2.75;2.55;;;14.40;96.50;;;;;;5110459;27;20696;-65
2021/05/23 01:57:57;;;;;;;2.80;2.60;;;14.30;96.50;;;;;;5110243;28;20577;-65
2021/05/23 02:00:26;;;;;;;3.17;2.88;;;14.30;96.50;;;;;;5114049;27;20222;-65
2021/05/23 02:02:53;;;;;;;2.85;2.53;;;14.30;96.50;;;;;;5113958;27;20234;-65
2021/05/23 02:05:20;;;;;;;2.95;2.75;;;14.30;96.50;;;;;;5115108;27;20222;-65
2021/05/23 02:07:46;;;;;;;3.05;2.72;;;14.30;96.50;;;;;;5113734;28;20219;-65
2021/05/23 02:10:15;;;;;;;2.47;2.35;;;14.20;96.50;;;;;;5114197;27;20222;-65
2021/05/23 02:12:44;;;;;;;2.30;2.20;;;14.20;96.60;;;;;;5114847;28;20576;-65
2021/05/23 02:15:14;;;;;;;3.25;2.95;;;14.30;96.60;;;;;;5114147;28;20233;-65
2021/05/23 02:17:42;;;;;;;2.58;2.40;;;14.20;96.60;;;;;;5113777;27;20560;-65
2021/05/23 02:20:12;;;;;;;3.40;3.20;;;14.20;96.60;;;;;;5114055;27;20227;-65
2021/05/23 02:22:39;;;;;;;2.35;2.22;;;14.20;96.70;;;;;;5114604;27;20222;-65
2021/05/23 02:25:07;;;;;;;2.28;2.13;;;14.20;96.80;;;;;;5114194;27;20549;-65
2021/05/23 02:27:37;;;;;;;2.60;2.10;;;14.20;96.70;;;;;;5114323;27;20657;-65
2021/05/23 02:30:08;;;;;;;3.13;2.92;;;14.20;96.60;;;;;;5113997;27;20223;-65
2021/05/23 02:32:35;;;;;;;2.70;2.50;;;14.20;96.60;;;;;;5109327;27;20600;-65
2021/05/23 02:35:02;;;;;;;2.40;2.20;;;14.20;96.60;;;;;;5113883;28;20729;-65
2021/05/23 02:37:29;;;;;;;2.92;2.72;;;14.20;96.70;;;;;;5111553;28;20230;-65
2021/05/23 02:39:55;;;;;;;2.33;2.22;;;14.20;96.70;;;;;;5103192;28;20219;-65
2021/05/23 02:42:22;;;;;;;2.40;2.30;;;14.20;96.70;;;;;;5114101;28;20259;-65
2021/05/23 02:44:48;;;;;;;2.28;2.08;;;14.10;96.60;;;;;;5114414;28;20750;-65
2021/05/23 02:47:14;;;;;;;3.25;2.95;;;14.20;96.60;;;;;;5112706;28;20231;-65
2021/05/23 02:49:42;;;;;;;2.95;2.75;;;14.10;96.60;;;;;;5112528;27;20219;-65
2021/05/23 02:52:10;;;;;;;2.70;2.50;;;14.10;96.60;;;;;;5099140;27;20215;-65
2021/05/23 02:54:38;;;;;;;2.20;2.10;;;14.10;96.40;;;;;;5114180;28;20681;-65
2021/05/23 02:57:05;;;;;;;2.20;2.10;;;14.10;96.50;;;;;;5113496;28;20229;-65
2021/05/23 02:59:32;;;;;;;2.80;2.60;;;14.10;96.50;;;;;;5114118;28;20215;-65
2021/05/23 03:01:59;;;;;;;2.78;2.58;;;14.10;96.50;;;;;;5112132;28;20550;-65
2021/05/23 03:04:25;;;;;;;2.60;2.40;;;14.00;96.50;;;;;;5112019;27;20234;-65
2021/05/23 03:06:53;;;;;;;2.10;1.90;;;14.00;96.50;;;;;;5112073;28;20732;-65
2021/05/23 03:09:20;;;;;;;2.45;2.35;;;14.00;96.50;;;;;;5111705;28;20219;-65
2021/05/23 03:11:47;;;;;;;3.38;3.08;;;14.00;96.60;;;;;;5113547;28;20230;-65
2021/05/23 03:14:14;;;;;;;2.33;2.20;;;13.90;96.60;;;;;;5113479;28;20227;-65
2021/05/23 03:16:41;;;;;;;6.40;2.65;;;13.90;96.70;;;;;;5113360;28;20218;-65
2021/05/23 03:19:08;;;;;;;2.45;2.25;;;13.90;96.80;;;;;;5112975;27;20218;-65
2021/05/23 03:21:35;;;;;;;2.72;2.53;;;13.90;96.80;;;;;;5113629;28;20214;-65
2021/05/23 03:24:03;;;;;;;3.03;2.50;;;13.90;96.80;;;;;;5113200;28;20219;-65
2021/05/23 03:26:30;;;;;;;2.42;2.33;;;13.90;96.80;;;;;;5113257;28;20233;-65
2021/05/23 03:28:56;;;;;;;2.47;2.38;;;14.00;96.80;;;;;;5104911;28;20237;-65
2021/05/23 03:31:23;;;;;;;2.80;2.60;;;13.90;96.70;;;;;;5112890;27;20227;-65
2021/05/23 03:33:49;;;;;;;2.80;2.60;;;14.00;96.80;;;;;;5113614;27;20219;-65
2021/05/23 03:36:16;;;;;;;2.10;2.00;;;14.00;96.70;;;;;;5112739;28;20233;-65
2021/05/23 03:38:43;;;;;;;3.17;2.30;;;14.00;96.70;;;;;;5113090;27;20287;-65
2021/05/23 03:41:11;;;;;;;2.35;2.25;;;14.00;96.70;;;;;;5112817;28;20222;-66
2021/05/23 03:43:38;;;;;;;2.72;2.53;;;14.00;96.70;;;;;;5113079;28;20680;-65
2021/05/23 03:46:04;;;;;;;2.70;2.50;;;14.00;96.80;;;;;;5110336;28;20862;-65
2021/05/23 03:48:31;;;;;;;3.95;1.70;;;14.00;96.70;;;;;;5111966;28;20676;-65
2021/05/23 03:50:57;;;;;;;2.35;2.20;;;14.00;96.80;;;;;;5112618;28;20223;-65
2021/05/23 03:53:24;;;;;;;2.20;2.10;;;14.00;96.70;;;;;;5112446;28;20219;-65
2021/05/23 03:55:50;;;;;;;2.20;2.10;;;14.00;96.70;;;;;;5112507;28;20252;-65
2021/05/23 03:58:18;;;;;;;2.70;2.28;;;14.00;96.70;;;;;;5112175;28;20235;-65
2021/05/23 04:00:45;;;;;;;2.60;2.38;;;14.00;96.70;;;;;;5112596;28;20233;-65
2021/05/23 04:03:12;;;;;;;2.05;1.95;;;14.00;96.70;;;;;;5112077;28;20668;-65
2021/05/23 04:05:38;;;;;;;3.45;2.20;;;14.00;96.80;;;;;;5112536;28;20218;-65
2021/05/23 04:08:05;;;;;;;1.92;1.83;;;14.00;96.90;;;;;;5112639;28;20214;-64
2021/05/23 04:10:35;;;;;;;2.50;2.30;;;14.10;97.00;;;;;;5112854;28;20226;-65
2021/05/23 04:13:03;;;;;;;6.32;3.45;;;14.00;97.10;;;;;;5112761;28;20242;-65
2021/05/23 04:15:31;;;;;;;2.08;1.98;;;14.00;97.10;;;;;;5099503;28;20238;-65
2021/05/23 04:17:58;;;;;;;2.15;2.05;;;14.00;97.10;;;;;;5112766;28;20226;-65
2021/05/23 04:20:26;;;;;;;2.33;2.22;;;14.00;97.20;;;;;;5098663;28;20675;-65
2021/05/23 04:22:53;;;;;;;1.80;1.70;;;14.00;97.20;;;;;;5113071;28;20614;-65
2021/05/23 04:25:21;;;;;;;2.17;2.05;;;14.10;97.30;;;;;;5099046;28;20226;-65
2021/05/23 04:27:50;;;;;;;2.38;2.28;;;14.10;97.30;;;;;;5112680;27;20223;-65
2021/05/23 04:30:18;;;;;;;3.00;2.10;;;14.10;97.30;;;;;;5112517;28;20257;-65
2021/05/23 04:32:46;;;;;;;2.10;2.00;;;14.20;97.50;;;;;;5112713;27;20230;-65
2021/05/23 04:35:14;;;;;;;2.05;1.85;;;14.20;97.40;;;;;;5112320;28;20234;-65
2021/05/23 04:37:41;;;;;;;2.92;2.10;;;14.30;97.40;;;;;;5112363;28;20218;-65
2021/05/23 04:40:09;;;;;;;2.30;2.20;;;14.30;97.40;;;;;;5112358;27;20229;-65
2021/05/23 04:42:37;;;;;;;3.08;2.05;;;14.30;97.40;;;;;;5112597;28;20595;-65
2021/05/23 04:45:05;;;;;;;2.10;2.00;;;14.40;97.40;;;;;;5112401;28;20668;-65
2021/05/23 04:47:31;;;;;;;2.45;1.98;;;14.40;97.30;;;;;;5112468;28;20222;-65
2021/05/23 04:49:58;;;;;;;2.38;1.88;;;14.40;97.20;;;;;;5112563;27;20219;-65
2021/05/23 04:52:25;;;;;;;2.22;2.13;;;14.40;97.10;;;;;;5112142;27;20226;-65
2021/05/23 04:54:52;;;;;;;2.38;2.17;;;14.50;97.10;;;;;;5112753;28;20218;-65
2021/05/23 04:57:18;;;;;;;2.20;1.92;;;14.50;97.20;;;;;;5112083;28;20230;-65
2021/05/23 04:59:45;;;;;;;2.25;2.15;;;14.50;97.10;;;;;;5114251;28;20229;-65
2021/05/23 05:02:12;;;;;;;2.20;2.00;;;14.50;97.10;;;;;;5115704;28;20260;-66
2021/05/23 05:04:39;;;;;;;4.22;2.10;;;14.60;97.10;;;;;;5116053;28;20311;-65
2021/05/23 05:07:06;;;;;;;2.50;1.90;;;14.60;97.20;;;;;;5115747;28;20229;-65
2021/05/23 05:09:32;;;;;;;2.42;1.70;;;14.70;97.20;;;;;;5116171;28;20233;-65
2021/05/23 05:11:59;;;;;;;1.80;1.70;;;14.70;96.90;;;;;;5116128;28;20219;-65
2021/05/23 05:14:25;;;;;;;2.90;2.22;;;14.70;96.90;;;;;;5115777;28;20227;-65
2021/05/23 05:16:52;;;;;;;3.78;1.40;;;14.70;96.80;;;;;;5115766;28;20222;-65
2021/05/23 05:19:18;;;;;;;2.25;1.90;;;14.80;96.70;;;;;;5115656;27;20227;-65
2021/05/23 05:21:45;;;;;;;2.08;1.67;;;14.70;96.60;;;;;;5115940;27;20219;-65
2021/05/23 05:24:12;;;;;;;8.10;2.33;;;14.70;96.60;;;;;;5115516;27;20214;-65
2021/05/23 05:26:40;;;;;;;1.80;1.70;;;14.70;96.50;;;;;;5115968;27;20691;-65
2021/05/23 05:29:06;;;;;;;2.13;1.92;;;14.70;96.50;;;;;;5115592;27;20215;-65
2021/05/23 05:31:33;;;;;;;1.70;1.60;;;14.70;96.60;;;;;;5115242;27;20222;-65
2021/05/23 05:34:00;;;;;;;1.77;1.38;;;14.70;96.60;;;;;;5115817;27;20227;-65
2021/05/23 05:36:28;;;;;;;1.90;1.70;;;14.70;96.50;;;;;;5115325;28;20222;-65
2021/05/23 05:38:54;;;;;;;2.27;2.07;;;14.80;96.40;;;;;;5115338;27;20223;-65
2021/05/23 05:41:23;;;;;;;1.80;1.67;;;14.80;96.10;;;;;;5115058;27;20517;-65
2021/05/23 05:43:50;;;;;;;2.28;1.75;;;14.80;96.20;;;;;;5115329;28;20222;-65
2021/05/23 05:46:17;;;;;;;1.85;1.67;;;14.70;96.20;;;;;;5115154;28;20229;-65
2021/05/23 05:48:43;;;;;;;2.15;1.95;;;14.80;96.30;;;;;;5115209;28;20225;-65
2021/05/23 05:51:10;;;;;;;2.00;1.75;;;14.80;96.40;;;;;;5101503;27;20695;-65
2021/05/23 05:53:36;;;;;;;1.98;1.80;;;14.80;96.40;;;;;;5115386;27;20231;-65
2021/05/23 05:56:03;;;;;;;3.40;1.70;;;14.70;96.20;;;;;;5115190;28;20214;-65
2021/05/23 05:58:31;;;;;;;1.92;1.50;;;14.70;96.10;;;;;;5114731;28;20460;-65
2021/05/23 06:00:57;;;;;;;1.30;1.20;;;14.70;96.10;;;;;;5115370;28;20267;-65
2021/05/23 06:03:24;;;;;;;3.63;1.70;;;14.70;96.30;;;;;;5114452;28;20705;-65
2021/05/23 06:05:50;;;;;;;1.50;1.40;;;14.70;96.40;;;;;;5115136;28;20244;-65
2021/05/23 06:08:16;;;;;;;3.38;2.88;;;14.70;96.40;;;;;;5114583;27;20280;-65
2021/05/23 06:10:43;;;;;;;2.30;1.58;;;14.70;96.40;;;;;;5114860;27;20215;-65
2021/05/23 06:13:09;;;;;;;2.40;1.67;;;14.60;96.40;;;;;;5114567;28;20284;-65
2021/05/23 06:15:37;;;;;;;1.67;1.58;;;14.60;96.40;;;;;;5114916;28;20684;-65
2021/05/23 06:18:03;;;;;;;1.73;1.60;;;14.50;96.40;;;;;;5114491;28;20245;-65
2021/05/23 06:20:30;;;;;;;1.80;1.70;;;14.60;96.50;;;;;;5114501;28;20226;-65
2021/05/23 06:22:56;;;;;;;2.50;1.48;;;14.50;96.30;;;;;;5114466;28;20218;-65
2021/05/23 06:25:23;;;;;;;2.95;2.03;;;14.50;96.40;;;;;;5114151;27;20210;-65
2021/05/23 06:27:49;;;;;;;2.45;2.25;;;14.50;96.60;;;;;;5104972;28;20281;-65
2021/05/23 06:30:17;;;;;;;2.33;1.70;;;14.50;96.60;;;;;;5114138;28;20272;-65
2021/05/23 06:32:44;;;;;;;2.65;1.80;;;14.50;96.80;;;;;;5114314;27;20229;-65
2021/05/23 06:35:11;;;;;;;1.65;1.55;;;14.50;97.10;;;;;;5114139;28;20271;-65
2021/05/23 06:37:38;;;;;;;3.30;2.15;;;14.50;97.40;;;;;;5114170;28;20264;-65
2021/05/23 06:40:06;;;;;;;1.70;1.60;;;14.40;97.50;;;;;;5114599;27;20226;-65
2021/05/23 06:42:32;;;;;;;1.33;1.23;;;14.40;97.50;;;;;;5113919;28;20234;-65
2021/05/23 06:44:59;;;;;;;2.13;1.92;;;14.40;97.70;;;;;;5114216;27;20672;-65
2021/05/23 06:47:25;;;;;;;2.78;1.75;;;14.40;97.80;;;;;;5113656;28;20227;-65
2021/05/23 06:49:53;;;;;;;2.58;1.70;;;14.40;98.30;;;;;;5114279;27;20215;-65
2021/05/23 06:52:19;;;;;;;2.00;1.80;;;14.30;99.20;;;;;;5113840;27;20227;-65
2021/05/23 06:54:46;;;;;;;1.45;1.30;;;14.30;99.50;;;;;;5114291;28;20675;-65
2021/05/23 06:57:12;;;;;;;1.50;1.40;;;14.20;99.90;;;;;;5113697;28;20238;-65
2021/05/23 06:59:38;;;;;;;2.33;1.48;;;14.20;99.90;;;;;;5113867;28;20227;-65
2021/05/23 07:02:05;;;;;;;2.38;1.77;;;14.20;99.90;;;;;;5113955;28;20219;-65
2021/05/23 07:04:31;;;;;;;1.80;1.50;;;14.20;99.90;;;;;;5113293;28;20231;-65
2021/05/23 07:06:59;;;;;;;5.88;2.28;;;14.20;99.90;;;;;;5113977;28;20223;-65
2021/05/23 07:09:25;;;;;;;1.52;1.42;;;14.20;99.90;;;;;;5113509;28;20283;-65
2021/05/23 07:11:51;;;;;;;1.60;1.50;;;14.30;99.90;;;;;;5113831;28;20233;-65
2021/05/23 07:14:18;;;;;;;1.80;1.70;;;14.30;99.90;;;;;;5113186;28;20241;-65
2021/05/23 07:16:44;;;;;;;4.15;1.70;;;14.40;99.90;;;;;;5113704;27;20226;-65
2021/05/23 07:19:11;;;;;;;1.83;1.70;;;14.40;99.90;;;;;;5113767;28;20218;-65
2021/05/23 07:21:37;;;;;;;2.58;1.35;;;14.60;99.90;;;;;;5113159;28;20215;-65
2021/05/23 07:24:05;;;;;;;1.60;1.50;;;14.80;99.90;;;;;;5113218;28;20579;-65
2021/05/23 07:26:32;;;;;;;2.03;1.50;;;14.90;99.90;;;;;;5113037;27;20219;-65
2021/05/23 07:28:58;;;;;;;1.95;1.40;;;15.10;99.90;;;;;;5113381;28;20226;-65
2021/05/23 07:31:25;;;;;;;1.67;1.50;;;15.20;99.90;;;;;;5112789;27;20222;-65
2021/05/23 07:33:52;;;;;;;1.93;1.70;;;15.30;99.90;;;;;;5113567;27;20464;-65
2021/05/23 07:36:18;;;;;;;5.40;1.87;;;15.50;99.90;;;;;;5112974;28;20480;-65
2021/05/23 07:38:45;;;;;;;3.63;1.80;;;15.60;99.90;;;;;;5113058;27;20517;-65
2021/05/23 07:41:12;;;;;;;1.73;1.63;;;15.70;99.90;;;;;;5113275;28;20475;-65
2021/05/23 07:43:39;;;;;;;4.47;2.10;;;15.80;99.90;;;;;;5112927;28;20457;-65
2021/05/23 07:46:06;;;;;;;2.00;1.80;;;15.90;99.60;;;;;;5113021;28;20813;-65
2021/05/23 07:48:32;;;;;;;3.80;2.97;;;16.00;99.50;;;;;;5112684;28;20464;-65
2021/05/23 07:50:59;;;;;;;2.63;2.07;;;16.10;99.40;;;;;;5113019;27;20479;-65
2021/05/23 07:53:26;;;;;;;1.60;1.50;;;16.20;98.80;;;;;;5099156;28;20476;-65
2021/05/23 07:55:53;;;;;;;1.47;1.30;;;16.20;98.60;;;;;;5113390;28;20539;-65
2021/05/23 07:58:22;;;;;;;3.40;1.40;;;16.30;98.40;;;;;;5098808;28;20465;-65
2021/05/23 08:00:49;;;;;;;2.20;1.80;;;16.40;97.70;;;;;;5112997;28;20476;-65
2021/05/23 08:03:16;;;;;;;2.80;2.00;;;16.50;97.80;;;;;;5112798;28;20544;-65
2021/05/23 08:05:42;;;;;;;3.73;1.90;;;16.50;97.70;;;;;;5105888;28;21207;-65
2021/05/23 08:08:09;;;;;;;3.73;2.40;;;16.50;97.30;;;;;;5112890;28;20946;-65
2021/05/23 08:10:35;;;;;;;2.07;1.63;;;16.60;97.00;;;;;;5112698;28;20460;-65
2021/05/23 08:13:02;;;;;;;2.00;1.83;;;16.60;96.60;;;;;;5112977;28;20472;-65
2021/05/23 08:15:31;;;;;;;3.70;1.60;;;16.60;96.30;;;;;;5112369;28;20989;-65
2021/05/23 08:17:57;;;;;;;1.67;1.57;;;16.70;96.00;;;;;;5112829;28;20473;-65
2021/05/23 08:20:24;;;;;;;5.67;2.20;;;16.80;95.90;;;;;;5112375;28;20487;-65
2021/05/23 08:22:50;;;;;;;3.33;2.33;;;16.90;95.30;;;;;;5112929;28;20464;-65
2021/05/23 08:25:17;;;;;;;3.00;1.90;;;16.90;95.00;;;;;;5112790;28;20965;-65
2021/05/23 08:27:43;;;;;;;3.77;2.00;;;17.00;94.70;;;;;;5112471;28;20533;-65
2021/05/23 08:30:12;;;;;;;2.93;2.27;;;17.00;95.00;;;;;;5112498;28;20477;-65
2021/05/23 08:32:39;;;;;;;2.70;2.23;;;17.10;94.80;;;;;;5112193;27;20546;-65
2021/05/23 08:35:09;;;;;;;2.33;1.50;;;17.20;94.60;;;;;;5114707;28;20471;-65
2021/05/23 08:37:35;;;;;;;1.70;1.50;;;17.40;93.90;;;;;;5116111;27;20522;-65
2021/05/23 08:40:02;;;;;;;3.63;2.30;;;17.50;94.10;;;;;;5116740;27;20471;-65
2021/05/23 08:42:29;;;;;;;3.00;2.70;;;17.60;93.40;;;;;;5116352;28;20464;-64
2021/05/23 08:44:55;;;;;;;2.93;2.20;;;17.60;92.60;;;;;;5116847;27;20471;-65
2021/05/23 08:47:22;;;;;;;3.43;1.97;;;17.60;92.60;;;;;;5115880;28;20468;-65
2021/05/23 08:49:51;;;;;;;1.70;1.60;;;17.60;92.60;;;;;;5116426;28;20776;-65
2021/05/23 08:52:18;;;;;;;3.60;2.57;;;17.60;93.00;;;;;;5116635;27;20475;-64
2021/05/23 08:54:45;;;;;;;4.10;3.03;;;17.60;93.00;;;;;;5115920;28;20459;-65
2021/05/23 08:57:12;;;;;;;7.13;4.73;;;17.60;92.30;;;;;;5116307;28;20476;-64
2021/05/23 08:59:38;;;;;;;2.17;1.93;;;17.60;92.20;;;;;;5115920;28;20469;-64
2021/05/23 09:02:06;;;;;;;4.20;3.17;;;17.70;91.50;;;;;;5116162;28;20460;-64
2021/05/23 09:04:33;;;;;;;2.30;1.73;;;17.80;91.90;;;;;;5115641;27;20480;-64
2021/05/23 09:07:05;;;;;;;5.33;3.87;;;17.80;91.50;;;;;;5116388;27;20476;-64
2021/05/23 09:09:42;;;;;;;4.30;2.57;;;17.80;91.70;;;;;;5115870;27;20985;-65
2021/05/23 09:12:09;;;;;;;5.10;3.67;;;17.80;92.20;;;;;;5116032;27;20537;-64
2021/05/23 09:14:38;;;;;;;5.20;4.70;;;17.80;92.00;;;;;;5115781;28;20461;-64
2021/05/23 09:17:06;;;;;;;7.13;3.10;;;17.80;91.90;;;;;;5115745;27;20472;-64
2021/05/23 09:19:40;;;;;;;4.30;3.90;;;17.70;92.10;;;;;;5115592;28;20498;-65
2021/05/23 09:22:11;;;;;;;4.53;2.30;;;17.70;92.10;;;;;;5115863;28;20464;-64
2021/05/23 09:24:52;;;;;;;4.33;3.30;;;17.70;92.10;;;;;;5115698;28;20464;-64
2021/05/23 09:27:20;;;;;;;4.37;3.97;;;17.80;91.80;;;;;;5115506;27;20468;-64
2021/05/23 09:29:46;;;;;;;5.37;4.87;;;17.90;92.20;;;;;;5101766;28;20501;-64
2021/05/23 09:32:18;;;;;;;5.77;3.60;;;17.90;91.60;;;;;;5115647;27;20472;-64
2021/05/23 09:34:49;;;;;;;7.97;6.20;;;17.90;91.70;;;;;;5115297;27;20467;-64
2021/05/23 09:37:17;;;;;;;4.87;4.20;;;17.90;91.50;;;;;;5115599;28;20464;-64
2021/05/23 09:39:44;;;;;;;4.20;3.83;;;17.90;91.40;;;;;;5114892;27;20484;-65
2021/05/23 09:42:13;;;;;;;3.00;2.57;;;17.90;91.50;;;;;;5115490;28;20465;-64
2021/05/23 09:44:41;;;;;;;2.67;2.47;;;18.00;91.40;;;;;;5114857;27;20495;-65
2021/05/23 09:47:10;;;;;;;5.57;2.50;;;18.00;91.30;;;;;;5115050;28;20473;-64
2021/05/23 09:49:42;;;;;;;3.37;1.30;;;18.00;91.00;;;;;;5114940;28;20861;-64
2021/05/23 09:52:10;;;;;;;1.50;1.40;;;18.10;90.40;;;;;;5115320;28;20857;-64
2021/05/23 09:54:46;;;;;;;2.13;1.87;;;18.10;90.60;;;;;;5114784;28;20476;-65
2021/05/23 09:57:14;;;;;;;2.50;1.70;;;18.10;90.40;;;;;;5115134;28;20529;-65
2021/05/23 09:59:41;;;;;;;2.50;1.43;;;18.20;90.40;;;;;;5114860;28;20521;-65
2021/05/23 10:02:08;;;;;;;2.10;1.60;;;18.20;90.60;;;;;;5114930;27;20468;-65
2021/05/23 10:04:36;;;;;;;2.00;1.50;;;18.30;89.60;;;;;;5114706;28;20804;-65
2021/05/23 10:07:05;;;;;;;1.30;1.20;;;18.30;88.40;;;;;;5114832;28;20476;-65
2021/05/23 10:09:32;;;;;;;2.03;1.93;;;18.40;87.70;;;;;;5114536;28;20473;-65
2021/05/23 10:12:06;;;;;;;1.50;1.20;;;18.50;87.20;;;;;;5114886;28;20452;-65
2021/05/23 10:14:34;;;;;;;1.83;1.30;;;18.60;86.20;;;;;;5114471;27;20468;-65
2021/05/23 10:17:01;;;;;;;1.13;1.00;;;18.70;85.90;;;;;;5114706;27;20468;-65
2021/05/23 10:19:30;;;;;;;2.33;1.27;;;18.80;87.10;;;;;;5114378;28;20472;-65
2021/05/23 10:21:58;;;;;;;1.60;1.50;;;18.80;85.20;;;;;;5114724;28;20469;-65
2021/05/23 10:24:28;;;;;;;1.57;1.07;;;18.80;85.00;;;;;;5114625;27;20595;-65
2021/05/23 10:26:57;;;;;;;1.10;1.00;;;18.90;84.20;;;;;;5114336;28;21245;-65
2021/05/23 10:29:26;;;;;;;1.37;1.10;;;18.90;83.60;;;;;;5114737;28;20480;-65
2021/05/23 10:32:08;;;;;;;1.30;1.20;;;18.90;84.30;;;;;;5113939;27;20460;-65
2021/05/23 10:34:39;;;;;;;0.80;0.80;;;19.00;82.10;;;;;;5114255;27;20521;-65
2021/05/23 10:37:06;;;;;;;1.20;1.10;;;18.90;83.20;;;;;;5114329;28;20468;-65
2021/05/23 10:39:38;;;;;;;1.37;1.10;;;19.00;83.20;;;;;;5113893;27;20484;-65
2021/05/23 10:42:05;;;;;;;1.23;1.13;;;19.00;82.50;;;;;;5114406;28;20487;-65
2021/05/23 10:44:44;;;;;;;1.33;1.23;;;19.00;82.50;;;;;;5113846;27;20538;-65
2021/05/23 10:47:16;;;;;;;2.03;1.90;;;19.00;82.60;;;;;;5114097;28;20483;-65
2021/05/23 10:49:53;;;;;;;1.53;1.40;;;19.00;82.20;;;;;;5113848;28;20467;-65
2021/05/23 10:52:22;;;;;;;2.00;1.40;;;18.90;82.20;;;;;;5114037;28;20963;-65
2021/05/23 10:55:02;;;;;;;2.13;1.93;;;18.90;81.50;;;;;;5113686;28;20469;-65
2021/05/23 10:57:41;;;;;;;2.00;1.80;;;18.90;82.40;;;;;;5100552;28;20464;-65
2021/05/23 11:00:11;;;;;;;1.40;1.30;;;18.90;83.70;;;;;;5114243;28;20464;-65
2021/05/23 11:02:39;;;;;;;1.63;1.40;;;18.90;83.50;;;;;;5113503;28;20460;-65
2021/05/23 11:05:08;;;;;;;2.00;1.90;;;18.90;82.50;;;;;;5113821;27;20986;-65
2021/05/23 11:07:34;;;;;;;1.60;1.50;;;18.90;82.50;;;;;;5107138;28;20517;-65
2021/05/23 11:10:02;;;;;;;2.30;2.07;;;19.00;82.80;;;;;;5113910;28;20465;-65
2021/05/23 11:12:28;;;;;;;1.87;1.77;;;19.00;82.20;;;;;;5113549;28;20468;-65
2021/05/23 11:14:56;;;;;;;1.93;1.43;;;19.00;81.80;;;;;;5113753;28;20464;-65
2021/05/23 11:17:23;;;;;;;2.53;2.33;;;18.90;82.50;;;;;;5113094;28;20495;-65
2021/05/23 11:19:49;;;;;;;2.20;1.97;;;18.90;83.00;;;;;;5113433;27;20475;-65
2021/05/23 11:22:16;;;;;;;3.23;2.30;;;18.90;83.50;;;;;;5113420;28;20464;-65
2021/05/23 11:24:45;;;;;;;2.30;1.93;;;18.90;84.80;;;;;;5113244;28;20465;-65
2021/05/23 11:27:13;;;;;;;2.23;1.80;;;18.90;85.50;;;;;;5113381;28;20809;-65
2021/05/23 11:29:45;;;;;;;2.53;2.07;;;18.90;85.40;;;;;;5113111;27;20452;-65
2021/05/23 11:32:12;;;;;;;2.07;1.97;;;19.00;85.90;;;;;;5113177;27;20464;-65
2021/05/23 11:34:39;;;;;;;1.70;1.60;;;19.00;85.10;;;;;;5112960;27;20465;-65
2021/05/23 11:37:06;;;;;;;2.27;2.17;;;19.00;84.40;;;;;;5113269;28;20468;-65
2021/05/23 11:39:33;;;;;;;2.13;2.03;;;19.00;84.60;;;;;;5112673;27;20476;-65
2021/05/23 11:42:02;;;;;;;2.60;2.40;;;18.90;84.50;;;;;;5113146;28;20518;-65
2021/05/23 11:44:39;;;;;;;2.20;2.00;;;19.00;84.40;;;;;;5112844;27;20475;-65
2021/05/23 11:47:06;;;;;;;2.60;2.27;;;18.90;84.40;;;;;;5112964;28;20529;-65
2021/05/23 11:49:34;;;;;;;1.90;1.80;;;18.90;83.70;;;;;;5112775;28;20476;-65
2021/05/23 11:52:04;;;;;;;2.17;1.57;;;18.90;84.20;;;;;;5113189;28;20464;-65
2021/05/23 11:54:30;;;;;;;2.20;2.10;;;18.90;83.20;;;;;;5112809;28;20475;-65
2021/05/23 11:56:57;;;;;;;1.70;1.60;;;18.90;83.60;;;;;;5112772;28;20517;-66
2021/05/23 11:59:29;;;;;;;2.00;1.53;;;18.90;83.40;;;;;;5112506;28;20465;-65
2021/05/23 12:01:56;;;;;;;1.73;1.63;;;18.90;84.00;;;;;;5113137;28;20981;-65
2021/05/23 12:04:23;;;;;;;1.40;1.30;;;18.90;84.40;;;;;;5112507;28;20460;-65
2021/05/23 12:06:51;;;;;;;1.63;1.53;;;18.90;83.80;;;;;;5112899;27;20517;-65
2021/05/23 12:09:21;;;;;;;2.10;2.00;;;19.00;82.30;;;;;;5115669;27;20479;-65
2021/05/23 12:11:50;;;;;;;1.90;1.77;;;18.90;82.50;;;;;;5116923;27;20460;-65
2021/05/23 12:14:25;;;;;;;3.00;2.80;;;18.90;81.20;;;;;;5117290;28;20560;-65
2021/05/23 12:16:59;;;;;;;1.90;1.80;;;18.90;81.00;;;;;;5116840;27;21041;-65
2021/05/23 12:19:45;;;;;;;1.97;1.87;;;18.90;81.00;;;;;;5116833;28;20459;-65
2021/05/23 12:22:11;;;;;;;2.87;2.67;;;18.90;80.90;;;;;;5117088;27;20484;-65
2021/05/23 12:24:39;;;;;;;1.60;1.50;;;18.80;79.80;;;;;;5116937;28;20459;-65
2021/05/23 12:27:06;;;;;;;2.93;2.60;;;18.80;77.80;;;;;;5116730;28;20475;-65
2021/05/23 12:29:32;;;;;;;2.57;2.37;;;18.90;78.20;;;;;;5116347;27;21263;-65
2021/05/23 12:32:04;;;;;;;3.73;3.40;;;18.80;77.60;;;;;;5116619;27;20476;-65
2021/05/23 12:34:31;;;;;;;2.70;2.50;;;18.80;77.40;;;;;;5116422;27;20456;-65
2021/05/23 12:37:00;;;;;;;2.00;1.90;;;18.90;77.80;;;;;;5116716;28;20777;-65
2021/05/23 12:39:27;;;;;;;3.13;2.90;;;18.90;78.50;;;;;;5116031;27;20475;-65
2021/05/23 12:41:55;;;;;;;3.67;3.37;;;18.90;77.70;;;;;;5116901;28;20461;-65
2021/05/23 12:44:23;;;;;;;2.37;2.20;;;18.90;77.80;;;;;;5111341;28;20458;-65
2021/05/23 12:46:50;;;;;;;2.47;2.37;;;18.90;78.70;;;;;;5109355;28;20867;-65
2021/05/23 12:49:18;;;;;;;1.90;1.70;;;18.90;77.10;;;;;;5116115;27;20464;-65
2021/05/23 12:51:46;;;;;;;4.83;4.17;;;19.00;77.50;;;;;;5116670;28;20475;-65